Spaceon02064 — ASD — position and weather

sailwx.info

Track history (hours):
 
Tides and Currents Weather Stations Pressure Air Temp Water Temp Dewpoint Dewpoint Depression Visibility Wind Speed Wind Dir Waves Ship Positions

Spaceon02064

Last reported at 2014-Jul-31 09:33 UTC. Time now 2014-Aug-01 01:51 UTC.
Position N 31°22' E 121°30'.

Length 6 m.

Type: Ship. MMSI: 200902064.

Date/timePositionNaut miles runAvg speedWind from/ knotsBaromVisibWave heightAir tempDewpointWater temp
2014-Jul-31 09:33N 31°22' E 121°30'6 1.2
2014-Jul-31 04:27N 31°28' E 121°28'7 7.3
2014-Jul-31 03:33N 31°22' E 121°30'4828.0
2014-Jul-31 03:33N 31°25' E 121°32'4 4.1
2014-Jul-31 02:31N 31°21' E 121°31'409429.1
2014-Jul-31 01:33N 24°53' E 119°03'403397.5
2014-Jul-31 00:33N 31°15' E 121°30'7210.3
2014-Jul-30 17:33N 32°00' E 120°24'7110.1
2014-Jul-30 10:31N 31°23' E 121°35'4 3.8
2014-Jul-30 09:32N 31°21' E 121°32'4 3.5
2014-Jul-30 08:15N 31°17' E 121°34'0 0.0
2014-Jul-30 07:09N 31°17' E 121°34'0 0.0
2014-Jul-30 06:30N 31°17' E 121°34'0 0.0
2014-Jul-30 05:32N 31°17' E 121°34'0 0.0
2014-Jul-30 04:31N 31°17' E 121°34'0 0.0
2014-Jul-30 03:11N 31°17' E 121°34'0 0.0
2014-Jul-30 01:31N 31°17' E 121°34'0 0.0
2014-Jul-30 00:19N 31°17' E 121°34'0 0.0
2014-Jul-29 23:33N 31°17' E 121°34'719.3
2014-Jul-29 23:12N 31°23' E 121°30'7 9.5
2014-Jul-29 22:28N 31°17' E 121°34'0 0.0
2014-Jul-29 21:29N 31°17' E 121°34'0 0.0
2014-Jul-29 19:32N 31°17' E 121°34'0 0.0
2014-Jul-29 18:31N 31°17' E 121°34'0 0.0
2014-Jul-29 17:08N 31°17' E 121°34'0 0.0
2014-Jul-29 16:21N 31°17' E 121°34'0 0.0
2014-Jul-29 15:31N 31°17' E 121°34'0 0.0
2014-Jul-29 14:32N 31°17' E 121°34'0 0.0
2014-Jul-29 13:31N 31°17' E 121°34'0 0.0
2014-Jul-29 12:32N 31°17' E 121°34'7143.4
2014-Jul-29 12:29N 31°23' E 121°30'7 7.3
2014-Jul-29 11:33N 31°17' E 121°34'731.1
2014-Jul-29 11:20N 31°23' E 121°30'0 0.0
2014-Jul-29 10:33N 31°23' E 121°30'7881.5
2014-Jul-29 10:33N 31°17' E 121°34'0 0.0
2014-Jul-29 09:32N 31°17' E 121°34'71897.1
2014-Jul-29 09:32N 31°23' E 121°30'633.4
2014-Jul-29 09:22N 31°18' E 121°33'1 1.4
2014-Jul-29 08:33N 31°17' E 121°34'7 6.0
2014-Jul-29 07:24N 31°23' E 121°30'723.5
2014-Jul-29 07:07N 31°17' E 121°34'0 0.0
2014-Jul-29 06:11N 31°17' E 121°34'7328.8
2014-Jul-29 06:10N 31°23' E 121°30'7 8.8
2014-Jul-29 05:23N 31°17' E 121°34'1511.4
2014-Jul-29 04:03N 31°30' E 121°25'4 7.7
2014-Jul-29 03:32N 31°28' E 121°29'733.5
2014-Jul-29 03:20N 31°21' E 121°31'0 0.6
2014-Jul-29 02:30N 31°21' E 121°31'6 5.9
2014-Jul-29 01:25N 31°15' E 121°32'324.7
2014-Jul-29 01:18N 31°17' E 121°34'0 0.0
2014-Jul-29 00:17N 31°17' E 121°34'0 0.1
2014-Jul-28 23:32N 31°17' E 121°34'0 0.1
2014-Jul-28 22:30N 31°17' E 121°34'1 2.9
2014-Jul-28 22:06N 31°18' E 121°33'1 2.1
2014-Jul-28 21:32N 31°17' E 121°34'1 9.6
2014-Jul-28 21:25N 31°18' E 121°33'1 1.4
2014-Jul-28 20:33N 31°17' E 121°34'0 0.0
2014-Jul-28 19:33N 31°17' E 121°34'2 2.2
2014-Jul-28 18:30N 31°19' E 121°33'5 5.1
2014-Jul-28 17:33N 31°24' E 121°32'31520.6
2014-Jul-28 17:33N 31°21' E 121°31'9 8.3
2014-Jul-28 16:28N 31°21' E 121°41'9 2.9
2014-Jul-28 13:19N 31°21' E 121°30'2 0.4
2014-Jul-28 09:27N 31°22' E 121°29'0 0.0
2014-Jul-28 08:32N 31°22' E 121°29'2 3.4
2014-Jul-28 08:05N 31°21' E 121°30'2 1.0
2014-Jul-28 06:30N 31°22' E 121°29'1356.5
2014-Jul-28 06:17N 31°22' E 121°43'4251986.1
2014-Jul-28 06:04N 24°47' E 118°46'421597.2
2014-Jul-28 05:22N 31°22' E 121°29'421213.7
2014-Jul-28 03:24N 24°47' E 118°46'323151.2
2014-Jul-28 01:15N 22°14' E 113°35'0 0.0
2014-Jul-28 00:33N 22°14' E 113°35'694472.3
2014-Jul-27 23:05N 31°23' E 121°30'42228.9
2014-Jul-27 08:29N 24°47' E 118°46'0 0.0
2014-Jul-27 04:22N 24°47' E 118°46'0 0.0
2014-Jul-27 03:23N 24°47' E 118°46'0 0.0
2014-Jul-27 02:29N 24°47' E 118°46'0 0.7
2014-Jul-27 02:10N 24°47' E 118°46'446164.2
2014-Jul-26 23:27N 31°60' E 120°49'13 6.4
2014-Jul-26 21:27N 32°03' E 120°34'72952.8
2014-Jul-26 21:22N 31°22' E 121°43'0 0.0
2014-Jul-26 20:31N 31°22' E 121°43'775526.2
2014-Jul-26 20:30N 32°04' E 120°28'73220.6
2014-Jul-26 20:10N 31°14' E 121°30'1 1.7
2014-Jul-26 19:30N 31°15' E 121°30'131292.8
2014-Jul-26 19:29N 31°22' E 121°43'0 0.0
2014-Jul-26 18:29N 31°22' E 121°43'9 4.5
2014-Jul-26 16:28N 31°17' E 121°34'9 6.7
2014-Jul-26 15:07N 31°22' E 121°43'1322.6
2014-Jul-26 14:34N 31°15' E 121°30'6 4.0
2014-Jul-26 13:09N 31°20' E 121°33'2 3.7
2014-Jul-26 12:34N 31°21' E 121°30'5164.0
2014-Jul-26 12:32N 31°17' E 121°34'943.0
2014-Jul-26 12:19N 31°22' E 121°43'1013.6
2014-Jul-26 11:34N 31°24' E 121°31'1085.7
2014-Jul-26 11:26N 31°22' E 121°43'1234.1
2014-Jul-26 11:05N 31°15' E 121°31'1222.5
2014-Jul-26 10:32N 31°22' E 121°43'932644.0
2014-Jul-26 10:30N 31°58' E 120°02'4 4.0
2014-Jul-26 09:33N 31°57' E 120°07'89185.8
2014-Jul-26 09:04N 31°22' E 121°43'85166.6
2014-Jul-26 08:33N 31°57' E 120°12'852047.5
2014-Jul-26 08:31N 31°22' E 121°43'8184.7
2014-Jul-26 07:33N 31°58' E 120°18'818587.6
2014-Jul-26 07:33N 31°22' E 121°43'7757.7
2014-Jul-26 06:12N 32°01' E 120°25'3 5.3
2014-Jul-26 05:34N 32°02' E 120°29'5 4.5
2014-Jul-26 04:33N 32°01' E 120°34'3 3.1
2014-Jul-26 03:30N 32°00' E 120°38'925.0
2014-Jul-26 03:07N 32°05' E 120°28'1016.3
2014-Jul-26 02:30N 32°00' E 120°39'6762.7
2014-Jul-26 01:26N 31°22' E 121°43'6115.7
2014-Jul-25 21:33N 32°00' E 120°48'518.4
2014-Jul-25 21:17N 32°01' E 120°42'3 3.6
2014-Jul-25 20:33N 32°01' E 120°45'499.8
2014-Jul-25 20:31N 31°60' E 120°40'8 8.6
2014-Jul-25 19:33N 31°59' E 120°50'5919.1
2014-Jul-25 16:29N 31°22' E 121°43'13 2.5
2014-Jul-25 11:30N 31°26' E 121°30'2 2.3
2014-Jul-25 10:31N 31°24' E 121°31'227.4
2014-Jul-25 10:27N 31°25' E 121°29'1 1.4
2014-Jul-25 09:28N 31°25' E 121°30'0 3.4
2014-Jul-25 09:21N 31°24' E 121°31'2 2.2
2014-Jul-25 08:33N 31°23' E 121°30'212.5
2014-Jul-25 08:25N 31°24' E 121°31'4 4.3
2014-Jul-25 07:33N 31°22' E 121°28'421.7
2014-Jul-25 07:23N 31°24' E 121°31'4 4.5
2014-Jul-25 06:33N 31°22' E 121°28'4407.7
2014-Jul-25 06:33N 31°24' E 121°31'4 3.9
2014-Jul-25 05:33N 31°22' E 121°28'0 5.4
2014-Jul-25 05:32N 31°22' E 121°28'0 0.0
2014-Jul-25 04:33N 31°22' E 121°28'052.1
2014-Jul-25 04:33N 31°22' E 121°28'0 0.0
2014-Jul-25 03:33N 31°22' E 121°28'063.1
2014-Jul-25 03:33N 31°22' E 121°28'0 0.2
2014-Jul-25 02:33N 31°22' E 121°28'0 0.0
2014-Jul-25 01:33N 31°22' E 121°28'0 6.4
2014-Jul-25 01:32N 31°22' E 121°28'0 0.2
2014-Jul-25 00:33N 31°22' E 121°28'0 0.0
2014-Jul-24 23:33N 31°22' E 121°28'0 0.0
2014-Jul-24 22:33N 31°22' E 121°28'0 0.0
2014-Jul-24 21:33N 31°22' E 121°28'0 0.0
2014-Jul-24 20:33N 31°22' E 121°28'0 0.0
2014-Jul-24 19:33N 31°22' E 121°28'0 0.0
2014-Jul-24 18:33N 31°22' E 121°28'0 0.0
2014-Jul-24 17:33N 31°22' E 121°28'0 0.0
2014-Jul-24 16:33N 31°22' E 121°28'0 0.0
2014-Jul-24 15:33N 31°22' E 121°28'0 0.0
2014-Jul-24 14:33N 31°22' E 121°28'0 0.0
2014-Jul-24 13:33N 31°22' E 121°28'0 0.0
2014-Jul-24 12:33N 31°22' E 121°28'0 0.0
2014-Jul-24 11:33N 31°22' E 121°28'0 0.0
2014-Jul-24 10:33N 31°22' E 121°28'0 0.0
2014-Jul-24 09:33N 31°22' E 121°28'0 0.0
2014-Jul-24 08:33N 31°22' E 121°28'0 0.0
2014-Jul-24 07:33N 31°22' E 121°28'0 0.0
2014-Jul-24 06:33N 31°22' E 121°28'0 0.0
2014-Jul-24 05:33N 31°22' E 121°28'0 0.0
2014-Jul-24 04:32N 31°22' E 121°28'92202.9
2014-Jul-24 04:05N 29°55' E 122°05'92174.5
2014-Jul-24 03:33N 31°22' E 121°28'88781.3
2014-Jul-24 03:27N 29°59' E 122°02'8898.8
2014-Jul-24 02:33N 31°22' E 121°28'67407.1
2014-Jul-24 02:24N 31°58' E 120°21'6780.2
2014-Jul-24 01:33N 31°22' E 121°28'67379.6
2014-Jul-24 01:23N 31°58' E 120°21'6781.5
2014-Jul-24 00:33N 31°22' E 121°28'894.3
2014-Jul-24 00:28N 31°14' E 121°30'8 9.1
2014-Jul-23 23:33N 31°22' E 121°28'6711489.9
2014-Jul-23 23:33N 31°58' E 120°21'74812.8
2014-Jul-23 23:28N 31°17' E 121°34'4 4.9
2014-Jul-23 22:33N 31°21' E 121°32'3597.1
2014-Jul-23 22:33N 31°22' E 121°28'672635.7
2014-Jul-23 22:32N 31°59' E 120°22'6768.8
2014-Jul-23 21:33N 31°22' E 121°28'4385.1
2014-Jul-23 21:32N 31°24' E 121°31'671116.4
2014-Jul-23 21:29N 32°02' E 120°26'6671.9
2014-Jul-23 20:33N 31°22' E 121°28'551778.4
2014-Jul-23 20:32N 31°59' E 120°40'5557.1
2014-Jul-23 19:33N 31°22' E 121°28'0 0.1
2014-Jul-23 18:33N 31°22' E 121°28'1336.3
2014-Jul-23 18:11N 31°22' E 121°43'1321.2
2014-Jul-23 17:33N 31°22' E 121°28'0 0.0
2014-Jul-23 16:33N 31°22' E 121°28'0 0.0
2014-Jul-23 15:33N 31°22' E 121°28'0 0.0
2014-Jul-23 14:32N 31°22' E 121°28'0 0.0
2014-Jul-23 13:33N 31°22' E 121°28'0 0.0
2014-Jul-23 12:33N 31°22' E 121°28'0 0.0
2014-Jul-23 11:33N 31°22' E 121°28'0 0.0
2014-Jul-23 10:33N 31°22' E 121°28'55135.6
2014-Jul-23 10:09N 31°60' E 120°40'5592.6
2014-Jul-23 09:33N 31°21' E 121°27'0 0.4
2014-Jul-23 08:33N 31°21' E 121°27'551023.2
2014-Jul-23 08:30N 32°00' E 120°41'5558.6
2014-Jul-23 07:33N 31°21' E 121°27'5347337.1
2014-Jul-23 07:33N 32°01' E 120°46'5346.5
2014-Jul-23 06:25N 31°21' E 121°27'0 0.0
2014-Jul-23 05:33N 31°21' E 121°27'0 0.0
2014-Jul-23 04:32N 31°21' E 121°27'0 0.0
2014-Jul-23 03:31N 31°21' E 121°27'5961.9
2014-Jul-23 02:33N 32°00' E 120°34'5910709.9
2014-Jul-23 02:33N 31°21' E 121°27'0 0.0
2014-Jul-23 01:33N 31°21' E 121°27'6457719.5
2014-Jul-23 01:33N 32°00' E 120°27'6463.1
2014-Jul-23 00:32N 31°21' E 121°27'0 0.0
2014-Jul-22 23:33N 31°21' E 121°27'0 0.0
2014-Jul-22 22:33N 31°21' E 121°27'776.2
2014-Jul-22 22:28N 31°28' E 121°28'7 7.9
2014-Jul-22 21:33N 31°21' E 121°27'6150.0
2014-Jul-22 21:31N 31°25' E 121°32'6 6.1
2014-Jul-22 20:33N 31°21' E 121°27'0 0.0
2014-Jul-22 19:33N 31°21' E 121°27'0 0.0
2014-Jul-22 18:33N 31°21' E 121°27'0 0.0
2014-Jul-22 17:32N 31°21' E 121°27'0 0.0
2014-Jul-22 16:32N 31°21' E 121°27'0 0.0
2014-Jul-22 15:33N 31°21' E 121°27'0 0.0
2014-Jul-22 14:33N 31°21' E 121°27'0 0.0
2014-Jul-22 13:33N 31°21' E 121°27'0 0.0
2014-Jul-22 12:33N 31°21' E 121°27'6 5.8
2014-Jul-22 11:33N 31°24' E 121°32'51644.1
2014-Jul-22 11:33N 31°21' E 121°27'6158.7
2014-Jul-22 10:31N 32°02' E 120°35'617372.5
2014-Jul-22 10:31N 31°24' E 121°31'5960.8
2014-Jul-22 09:33N 32°01' E 120°37'4452490.4
2014-Jul-22 09:22N 24°47' E 118°46'447246.7
2014-Jul-22 07:33N 32°01' E 120°45'4 3.7
2014-Jul-22 06:33N 32°00' E 120°49'11 3.5
2014-Jul-22 03:33N 31°60' E 120°37'8 8.1
2014-Jul-22 02:32N 32°02' E 120°27'66145.9
2014-Jul-22 02:05N 31°24' E 121°31'0 0.0
2014-Jul-22 01:28N 31°24' E 121°31'701678.8
2014-Jul-22 01:26N 31°57' E 120°17'7080.0
2014-Jul-22 00:33N 31°24' E 121°31'0 0.0
2014-Jul-21 23:22N 31°24' E 121°31'0 0.1
2014-Jul-21 22:33N 31°24' E 121°31'0 0.0
2014-Jul-21 21:33N 31°24' E 121°31'2 2.2
2014-Jul-21 20:32N 31°26' E 121°29'2 6.1
2014-Jul-21 20:13N 31°27' E 121°27'41 6.1
2014-Jul-21 13:29N 31°56' E 120°52'5 5.1
2014-Jul-21 12:33N 31°60' E 120°49'4938.8
2014-Jul-21 11:16N 31°26' E 121°31'565936.1
2014-Jul-21 11:15N 31°60' E 120°38'5 6.9
2014-Jul-21 10:33N 32°01' E 120°33'7 7.1
2014-Jul-21 09:33N 32°01' E 120°25'  
Track history (hours):
 
Tides and Currents Weather Stations Pressure Air Temp Water Temp Dewpoint Dewpoint Depression Visibility Wind Speed Wind Dir Waves Ship Positions

Spaceon02064

Last reported at 2014-Jul-31 09:33 UTC. Time now 2014-Aug-01 01:51 UTC.
Position N 31°22' E 121°30'.

Length 6 m.

Type: Ship. MMSI: 200902064.

Date/timePositionNaut miles runAvg speedWind from/ knotsBaromVisibWave heightAir tempDewpointWater temp
2014-Jul-31 09:33N 31°22' E 121°30'6 1.2
2014-Jul-31 04:27N 31°28' E 121°28'7 7.3
2014-Jul-31 03:33N 31°22' E 121°30'4828.0
2014-Jul-31 03:33N 31°25' E 121°32'4 4.1
2014-Jul-31 02:31N 31°21' E 121°31'409429.1
2014-Jul-31 01:33N 24°53' E 119°03'403397.5
2014-Jul-31 00:33N 31°15' E 121°30'7210.3
2014-Jul-30 17:33N 32°00' E 120°24'7110.1
2014-Jul-30 10:31N 31°23' E 121°35'4 3.8
2014-Jul-30 09:32N 31°21' E 121°32'4 3.5
2014-Jul-30 08:15N 31°17' E 121°34'0 0.0
2014-Jul-30 07:09N 31°17' E 121°34'0 0.0
2014-Jul-30 06:30N 31°17' E 121°34'0 0.0
2014-Jul-30 05:32N 31°17' E 121°34'0 0.0
2014-Jul-30 04:31N 31°17' E 121°34'0 0.0
2014-Jul-30 03:11N 31°17' E 121°34'0 0.0
2014-Jul-30 01:31N 31°17' E 121°34'0 0.0
2014-Jul-30 00:19N 31°17' E 121°34'0 0.0
2014-Jul-29 23:33N 31°17' E 121°34'719.3
2014-Jul-29 23:12N 31°23' E 121°30'7 9.5
2014-Jul-29 22:28N 31°17' E 121°34'0 0.0
2014-Jul-29 21:29N 31°17' E 121°34'0 0.0
2014-Jul-29 19:32N 31°17' E 121°34'0 0.0
2014-Jul-29 18:31N 31°17' E 121°34'0 0.0
2014-Jul-29 17:08N 31°17' E 121°34'0 0.0
2014-Jul-29 16:21N 31°17' E 121°34'0 0.0
2014-Jul-29 15:31N 31°17' E 121°34'0 0.0
2014-Jul-29 14:32N 31°17' E 121°34'0 0.0
2014-Jul-29 13:31N 31°17' E 121°34'0 0.0
2014-Jul-29 12:32N 31°17' E 121°34'7143.4
2014-Jul-29 12:29N 31°23' E 121°30'7 7.3
2014-Jul-29 11:33N 31°17' E 121°34'731.1
2014-Jul-29 11:20N 31°23' E 121°30'0 0.0
2014-Jul-29 10:33N 31°23' E 121°30'7881.5
2014-Jul-29 10:33N 31°17' E 121°34'0 0.0
2014-Jul-29 09:32N 31°17' E 121°34'71897.1
2014-Jul-29 09:32N 31°23' E 121°30'633.4
2014-Jul-29 09:22N 31°18' E 121°33'1 1.4
2014-Jul-29 08:33N 31°17' E 121°34'7 6.0
2014-Jul-29 07:24N 31°23' E 121°30'723.5
2014-Jul-29 07:07N 31°17' E 121°34'0 0.0
2014-Jul-29 06:11N 31°17' E 121°34'7328.8
2014-Jul-29 06:10N 31°23' E 121°30'7 8.8
2014-Jul-29 05:23N 31°17' E 121°34'1511.4
2014-Jul-29 04:03N 31°30' E 121°25'4 7.7
2014-Jul-29 03:32N 31°28' E 121°29'733.5
2014-Jul-29 03:20N 31°21' E 121°31'0 0.6
2014-Jul-29 02:30N 31°21' E 121°31'6 5.9
2014-Jul-29 01:25N 31°15' E 121°32'324.7
2014-Jul-29 01:18N 31°17' E 121°34'0 0.0
2014-Jul-29 00:17N 31°17' E 121°34'0 0.1
2014-Jul-28 23:32N 31°17' E 121°34'0 0.1
2014-Jul-28 22:30N 31°17' E 121°34'1 2.9
2014-Jul-28 22:06N 31°18' E 121°33'1 2.1
2014-Jul-28 21:32N 31°17' E 121°34'1 9.6
2014-Jul-28 21:25N 31°18' E 121°33'1 1.4
2014-Jul-28 20:33N 31°17' E 121°34'0 0.0
2014-Jul-28 19:33N 31°17' E 121°34'2 2.2
2014-Jul-28 18:30N 31°19' E 121°33'5 5.1
2014-Jul-28 17:33N 31°24' E 121°32'31520.6
2014-Jul-28 17:33N 31°21' E 121°31'9 8.3
2014-Jul-28 16:28N 31°21' E 121°41'9 2.9
2014-Jul-28 13:19N 31°21' E 121°30'2 0.4
2014-Jul-28 09:27N 31°22' E 121°29'0 0.0
2014-Jul-28 08:32N 31°22' E 121°29'2 3.4
2014-Jul-28 08:05N 31°21' E 121°30'2 1.0
2014-Jul-28 06:30N 31°22' E 121°29'1356.5
2014-Jul-28 06:17N 31°22' E 121°43'4251986.1
2014-Jul-28 06:04N 24°47' E 118°46'421597.2
2014-Jul-28 05:22N 31°22' E 121°29'421213.7
2014-Jul-28 03:24N 24°47' E 118°46'323151.2
2014-Jul-28 01:15N 22°14' E 113°35'0 0.0
2014-Jul-28 00:33N 22°14' E 113°35'694472.3
2014-Jul-27 23:05N 31°23' E 121°30'42228.9
2014-Jul-27 08:29N 24°47' E 118°46'0 0.0
2014-Jul-27 04:22N 24°47' E 118°46'0 0.0
2014-Jul-27 03:23N 24°47' E 118°46'0 0.0
2014-Jul-27 02:29N 24°47' E 118°46'0 0.7
2014-Jul-27 02:10N 24°47' E 118°46'446164.2
2014-Jul-26 23:27N 31°60' E 120°49'13 6.4
2014-Jul-26 21:27N 32°03' E 120°34'72952.8
2014-Jul-26 21:22N 31°22' E 121°43'0 0.0
2014-Jul-26 20:31N 31°22' E 121°43'775526.2
2014-Jul-26 20:30N 32°04' E 120°28'73220.6
2014-Jul-26 20:10N 31°14' E 121°30'1 1.7
2014-Jul-26 19:30N 31°15' E 121°30'131292.8
2014-Jul-26 19:29N 31°22' E 121°43'0 0.0
2014-Jul-26 18:29N 31°22' E 121°43'9 4.5
2014-Jul-26 16:28N 31°17' E 121°34'9 6.7
2014-Jul-26 15:07N 31°22' E 121°43'1322.6
2014-Jul-26 14:34N 31°15' E 121°30'6 4.0
2014-Jul-26 13:09N 31°20' E 121°33'2 3.7
2014-Jul-26 12:34N 31°21' E 121°30'5164.0
2014-Jul-26 12:32N 31°17' E 121°34'943.0
2014-Jul-26 12:19N 31°22' E 121°43'1013.6
2014-Jul-26 11:34N 31°24' E 121°31'1085.7
2014-Jul-26 11:26N 31°22' E 121°43'1234.1
2014-Jul-26 11:05N 31°15' E 121°31'1222.5
2014-Jul-26 10:32N 31°22' E 121°43'932644.0
2014-Jul-26 10:30N 31°58' E 120°02'4 4.0
2014-Jul-26 09:33N 31°57' E 120°07'89185.8
2014-Jul-26 09:04N 31°22' E 121°43'85166.6
2014-Jul-26 08:33N 31°57' E 120°12'852047.5
2014-Jul-26 08:31N 31°22' E 121°43'8184.7
2014-Jul-26 07:33N 31°58' E 120°18'818587.6
2014-Jul-26 07:33N 31°22' E 121°43'7757.7
2014-Jul-26 06:12N 32°01' E 120°25'3 5.3
2014-Jul-26 05:34N 32°02' E 120°29'5 4.5
2014-Jul-26 04:33N 32°01' E 120°34'3 3.1
2014-Jul-26 03:30N 32°00' E 120°38'925.0
2014-Jul-26 03:07N 32°05' E 120°28'1016.3
2014-Jul-26 02:30N 32°00' E 120°39'6762.7
2014-Jul-26 01:26N 31°22' E 121°43'6115.7
2014-Jul-25 21:33N 32°00' E 120°48'518.4
2014-Jul-25 21:17N 32°01' E 120°42'3 3.6
2014-Jul-25 20:33N 32°01' E 120°45'499.8
2014-Jul-25 20:31N 31°60' E 120°40'8 8.6
2014-Jul-25 19:33N 31°59' E 120°50'5919.1
2014-Jul-25 16:29N 31°22' E 121°43'13 2.5
2014-Jul-25 11:30N 31°26' E 121°30'2 2.3
2014-Jul-25 10:31N 31°24' E 121°31'227.4
2014-Jul-25 10:27N 31°25' E 121°29'1 1.4
2014-Jul-25 09:28N 31°25' E 121°30'0 3.4
2014-Jul-25 09:21N 31°24' E 121°31'2 2.2
2014-Jul-25 08:33N 31°23' E 121°30'212.5
2014-Jul-25 08:25N 31°24' E 121°31'4 4.3
2014-Jul-25 07:33N 31°22' E 121°28'421.7
2014-Jul-25 07:23N 31°24' E 121°31'4 4.5
2014-Jul-25 06:33N 31°22' E 121°28'4407.7
2014-Jul-25 06:33N 31°24' E 121°31'4 3.9
2014-Jul-25 05:33N 31°22' E 121°28'0 5.4
2014-Jul-25 05:32N 31°22' E 121°28'0 0.0
2014-Jul-25 04:33N 31°22' E 121°28'052.1
2014-Jul-25 04:33N 31°22' E 121°28'0 0.0
2014-Jul-25 03:33N 31°22' E 121°28'063.1
2014-Jul-25 03:33N 31°22' E 121°28'0 0.2
2014-Jul-25 02:33N 31°22' E 121°28'0 0.0
2014-Jul-25 01:33N 31°22' E 121°28'0 6.4
2014-Jul-25 01:32N 31°22' E 121°28'0 0.2
2014-Jul-25 00:33N 31°22' E 121°28'0 0.0
2014-Jul-24 23:33N 31°22' E 121°28'0 0.0
2014-Jul-24 22:33N 31°22' E 121°28'0 0.0
2014-Jul-24 21:33N 31°22' E 121°28'0 0.0
2014-Jul-24 20:33N 31°22' E 121°28'0 0.0
2014-Jul-24 19:33N 31°22' E 121°28'0 0.0
2014-Jul-24 18:33N 31°22' E 121°28'0 0.0
2014-Jul-24 17:33N 31°22' E 121°28'0 0.0
2014-Jul-24 16:33N 31°22' E 121°28'0 0.0
2014-Jul-24 15:33N 31°22' E 121°28'0 0.0
2014-Jul-24 14:33N 31°22' E 121°28'0 0.0
2014-Jul-24 13:33N 31°22' E 121°28'0 0.0
2014-Jul-24 12:33N 31°22' E 121°28'0 0.0
2014-Jul-24 11:33N 31°22' E 121°28'0 0.0
2014-Jul-24 10:33N 31°22' E 121°28'0 0.0
2014-Jul-24 09:33N 31°22' E 121°28'0 0.0
2014-Jul-24 08:33N 31°22' E 121°28'0 0.0
2014-Jul-24 07:33N 31°22' E 121°28'0 0.0
2014-Jul-24 06:33N 31°22' E 121°28'0 0.0
2014-Jul-24 05:33N 31°22' E 121°28'0 0.0
2014-Jul-24 04:32N 31°22' E 121°28'92202.9
2014-Jul-24 04:05N 29°55' E 122°05'92174.5
2014-Jul-24 03:33N 31°22' E 121°28'88781.3
2014-Jul-24 03:27N 29°59' E 122°02'8898.8
2014-Jul-24 02:33N 31°22' E 121°28'67407.1
2014-Jul-24 02:24N 31°58' E 120°21'6780.2
2014-Jul-24 01:33N 31°22' E 121°28'67379.6
2014-Jul-24 01:23N 31°58' E 120°21'6781.5
2014-Jul-24 00:33N 31°22' E 121°28'894.3
2014-Jul-24 00:28N 31°14' E 121°30'8 9.1
2014-Jul-23 23:33N 31°22' E 121°28'6711489.9
2014-Jul-23 23:33N 31°58' E 120°21'74812.8
2014-Jul-23 23:28N 31°17' E 121°34'4 4.9
2014-Jul-23 22:33N 31°21' E 121°32'3597.1
2014-Jul-23 22:33N 31°22' E 121°28'672635.7
2014-Jul-23 22:32N 31°59' E 120°22'6768.8
2014-Jul-23 21:33N 31°22' E 121°28'4385.1
2014-Jul-23 21:32N 31°24' E 121°31'671116.4
2014-Jul-23 21:29N 32°02' E 120°26'6671.9
2014-Jul-23 20:33N 31°22' E 121°28'551778.4
2014-Jul-23 20:32N 31°59' E 120°40'5557.1
2014-Jul-23 19:33N 31°22' E 121°28'0 0.1
2014-Jul-23 18:33N 31°22' E 121°28'1336.3
2014-Jul-23 18:11N 31°22' E 121°43'1321.2
2014-Jul-23 17:33N 31°22' E 121°28'0 0.0
2014-Jul-23 16:33N 31°22' E 121°28'0 0.0
2014-Jul-23 15:33N 31°22' E 121°28'0 0.0
2014-Jul-23 14:32N 31°22' E 121°28'0 0.0
2014-Jul-23 13:33N 31°22' E 121°28'0 0.0
2014-Jul-23 12:33N 31°22' E 121°28'0 0.0
2014-Jul-23 11:33N 31°22' E 121°28'0 0.0
2014-Jul-23 10:33N 31°22' E 121°28'55135.6
2014-Jul-23 10:09N 31°60' E 120°40'5592.6
2014-Jul-23 09:33N 31°21' E 121°27'0 0.4
2014-Jul-23 08:33N 31°21' E 121°27'551023.2
2014-Jul-23 08:30N 32°00' E 120°41'5558.6
2014-Jul-23 07:33N 31°21' E 121°27'5347337.1
2014-Jul-23 07:33N 32°01' E 120°46'5346.5
2014-Jul-23 06:25N 31°21' E 121°27'0 0.0
2014-Jul-23 05:33N 31°21' E 121°27'0 0.0
2014-Jul-23 04:32N 31°21' E 121°27'0 0.0
2014-Jul-23 03:31N 31°21' E 121°27'5961.9
2014-Jul-23 02:33N 32°00' E 120°34'5910709.9
2014-Jul-23 02:33N 31°21' E 121°27'0 0.0
2014-Jul-23 01:33N 31°21' E 121°27'6457719.5
2014-Jul-23 01:33N 32°00' E 120°27'6463.1
2014-Jul-23 00:32N 31°21' E 121°27'0 0.0
2014-Jul-22 23:33N 31°21' E 121°27'0 0.0
2014-Jul-22 22:33N 31°21' E 121°27'776.2
2014-Jul-22 22:28N 31°28' E 121°28'7 7.9
2014-Jul-22 21:33N 31°21' E 121°27'6150.0
2014-Jul-22 21:31N 31°25' E 121°32'6 6.1
2014-Jul-22 20:33N 31°21' E 121°27'0 0.0
2014-Jul-22 19:33N 31°21' E 121°27'0 0.0
2014-Jul-22 18:33N 31°21' E 121°27'0 0.0
2014-Jul-22 17:32N 31°21' E 121°27'0 0.0
2014-Jul-22 16:32N 31°21' E 121°27'0 0.0
2014-Jul-22 15:33N 31°21' E 121°27'0 0.0
2014-Jul-22 14:33N 31°21' E 121°27'0 0.0
2014-Jul-22 13:33N 31°21' E 121°27'0 0.0
2014-Jul-22 12:33N 31°21' E 121°27'6 5.8
2014-Jul-22 11:33N 31°24' E 121°32'51644.1
2014-Jul-22 11:33N 31°21' E 121°27'6158.7
2014-Jul-22 10:31N 32°02' E 120°35'617372.5
2014-Jul-22 10:31N 31°24' E 121°31'5960.8
2014-Jul-22 09:33N 32°01' E 120°37'4452490.4
2014-Jul-22 09:22N 24°47' E 118°46'447246.7
2014-Jul-22 07:33N 32°01' E 120°45'4 3.7
2014-Jul-22 06:33N 32°00' E 120°49'11 3.5
2014-Jul-22 03:33N 31°60' E 120°37'8 8.1
2014-Jul-22 02:32N 32°02' E 120°27'66145.9
2014-Jul-22 02:05N 31°24' E 121°31'0 0.0
2014-Jul-22 01:28N 31°24' E 121°31'701678.8
2014-Jul-22 01:26N 31°57' E 120°17'7080.0
2014-Jul-22 00:33N 31°24' E 121°31'0 0.0
2014-Jul-21 23:22N 31°24' E 121°31'0 0.1
2014-Jul-21 22:33N 31°24' E 121°31'0 0.0
2014-Jul-21 21:33N 31°24' E 121°31'2 2.2
2014-Jul-21 20:32N 31°26' E 121°29'2 6.1
2014-Jul-21 20:13N 31°27' E 121°27'41 6.1
2014-Jul-21 13:29N 31°56' E 120°52'5 5.1
2014-Jul-21 12:33N 31°60' E 120°49'4938.8
2014-Jul-21 11:16N 31°26' E 121°31'565936.1
2014-Jul-21 11:15N 31°60' E 120°38'5 6.9
2014-Jul-21 10:33N 32°01' E 120°33'7 7.1
2014-Jul-21 09:33N 32°01' E 120°25'  

Dump ship's entire track history